Domov               UVHVVR             MKGP            O straneh              
ZDRAVSTVENO VARSTVO RASTLIN
  MREŽA AGROMET. POSTAJ
 ► PROGNOSTIČNA OBVESTILA
AGROMETEOROLOŠKI PODATKI -
ARSO
OBVLADOVANJE TVEGANJ ZARADI
NEUGODNIH VREMENSKIH RAZMER
  ► NARAVNE NESREČE
  ► SUŠA/MOČA
  ► NAMAKANJE
  ► ŽLED (gozdarstvo)
KARTOGRAFSKI PRIKAZI
SPLETNE POVEZAVE
PROJEKTI IN PUBLIKACIJE

AGROMETEOROLOŠKA MREŽA: VREMENSKE POSTAJE IN FENOLOŠKA OPAZOVANJA

Pregled podatkov za lokacijo Savci, meteorološka postaja 27387

Pregled senzorjev na lokaciji

ID Ime Zadnja
vrednost
Datum
zadnje
spremembe
Tip
senzorja
4391 Omočenost lista (U) 0 U 23.3.2019 12:30 A730WET
4390 Padavine (mm) 0 mm 23.3.2019 12:30 Generic 0.2 mm
4395 Relativna vlaga 2 m (% RH) 39,93 % RH 23.3.2019 12:29 Generic 0 - 100 %
4394 Temperatura 2 m (°C) 16,63 °C 23.3.2019 12:30 Generic -40 - +60 °C

Pregled podatkov zadnjih 24 ur

Zap.
št.
Datum in čas Savci
Omočenost
lista
Padavine Relativna
vlaga
2
m
Temperatura
2
m
1 23.3.2019 11:30 0 0 39,9 16,6
2 23.3.2019 11:00 0 0 42,9 15,8
3 23.3.2019 10:30 0 0 45,2 14,9
4 23.3.2019 10:00 0 0 48,9 14
5 23.3.2019 09:30 0 0 50,8 13,1
6 23.3.2019 09:00 0 0 59,7 10,8
7 23.3.2019 08:30 0 0 69,1 8,4
8 23.3.2019 08:00 4 0 73,5 6,3
9 23.3.2019 07:30 10 0 80,5 3,6
10 23.3.2019 07:00 10 0 90,1 1,5
11 23.3.2019 06:30 10 0 95,4 -0,1
12 23.3.2019 06:00 10 0 95,8 -0,4
13 23.3.2019 05:30 10 0 95,8 -0,3
14 23.3.2019 05:00 9 0 95 -0,2
15 23.3.2019 04:30 6 0 94,1 -0,2
16 23.3.2019 04:00 3 0 92,6 0,1
17 23.3.2019 03:30 1 0 89 0,4
18 23.3.2019 03:00 0 0 86,3 0,6
19 23.3.2019 02:30 0 0 85,3 1
20 23.3.2019 02:00 0 0 83,6 1,3
21 23.3.2019 01:30 0 0 82,4 1,6
22 23.3.2019 01:00 0 0 81,1 2
23 23.3.2019 00:30 0 0 77,2 2,1
24 23.3.2019 00:00 0 0 74,4 2,6
25 22.3.2019 23:30 0 0 73,6 2,9
26 22.3.2019 23:00 0 0 70 3,4
27 22.3.2019 22:30 0 0 69,8 3,7
28 22.3.2019 22:00 0 0 68,5 4
29 22.3.2019 21:30 0 0 65,9 4,7
30 22.3.2019 21:00 0 0 65,5 5,1
31 22.3.2019 20:30 0 0 63,4 5,9
32 22.3.2019 20:00 0 0 61,4 6,4
33 22.3.2019 19:30 0 0 57,3 7,4
34 22.3.2019 19:00 0 0 56,8 8,2
35 22.3.2019 18:30 0 0 48,1 10
36 22.3.2019 18:00 0 0 49,3 11,4
37 22.3.2019 17:30 0 0 37 13,8
38 22.3.2019 17:00 0 0 25,5 15,2
39 22.3.2019 16:30 0 0 27,6 15,6
40 22.3.2019 16:00 0 0 26,7 16,1
41 22.3.2019 15:30 0 0 26,8 16,1
42 22.3.2019 15:00 0 0 25,4 16,3
43 22.3.2019 14:30 0 0 25,3 16,2
44 22.3.2019 14:00 0 0 28,1 15,9
45 22.3.2019 13:30 0 0 29,9 15,9
46 22.3.2019 13:00 0 0 31,3 15,3
47 22.3.2019 12:30 0 0 31,6 14,9
48 22.3.2019 12:00 0 0 33,4 14,2
© 2011 Ministrstvo za kmetijstvo, gozdarstvo in prehrano. Vse pravice pridržane.